sensor_id;sensor_type;location;lat;lon;timestamp;pressure;altitude;pressure_sealevel;temperature;humidity
55517;BME280;41724;51.176;-0.708;2023-06-24T00:02:22;101997.69;;;21.50;56.16
55517;BME280;41724;51.176;-0.708;2023-06-24T00:04:49;102002.76;;;21.47;55.92
55517;BME280;41724;51.176;-0.708;2023-06-24T00:07:16;102005.86;;;21.40;56.09
55517;BME280;41724;51.176;-0.708;2023-06-24T00:09:43;102004.91;;;21.31;56.84
55517;BME280;41724;51.176;-0.708;2023-06-24T00:12:10;102006.31;;;21.17;56.38
55517;BME280;41724;51.176;-0.708;2023-06-24T00:14:37;102006.00;;;21.47;55.80
55517;BME280;41724;51.176;-0.708;2023-06-24T00:17:05;102008.12;;;21.10;56.83
55517;BME280;41724;51.176;-0.708;2023-06-24T00:19:32;102008.06;;;21.36;56.55
55517;BME280;41724;51.176;-0.708;2023-06-24T00:21:59;102007.87;;;21.30;56.35
55517;BME280;41724;51.176;-0.708;2023-06-24T00:24:26;102003.93;;;21.32;56.35
55517;BME280;41724;51.176;-0.708;2023-06-24T00:26:53;102000.68;;;21.14;56.13
55517;BME280;41724;51.176;-0.708;2023-06-24T00:29:20;101998.19;;;20.72;58.02
55517;BME280;41724;51.176;-0.708;2023-06-24T00:31:48;102000.41;;;20.74;57.72
55517;BME280;41724;51.176;-0.708;2023-06-24T00:34:15;102000.03;;;20.70;57.02
55517;BME280;41724;51.176;-0.708;2023-06-24T00:36:41;101997.26;;;20.77;56.89
55517;BME280;41724;51.176;-0.708;2023-06-24T00:39:09;102001.10;;;21.08;57.13
55517;BME280;41724;51.176;-0.708;2023-06-24T00:41:36;101997.77;;;20.92;57.63
55517;BME280;41724;51.176;-0.708;2023-06-24T00:44:03;102001.93;;;20.43;57.99
55517;BME280;41724;51.176;-0.708;2023-06-24T00:46:31;102002.48;;;20.59;57.76
55517;BME280;41724;51.176;-0.708;2023-06-24T00:48:59;102003.67;;;20.30;58.25
55517;BME280;41724;51.176;-0.708;2023-06-24T00:51:26;101997.63;;;20.38;57.39
55517;BME280;41724;51.176;-0.708;2023-06-24T00:53:53;101996.95;;;20.65;57.76
55517;BME280;41724;51.176;-0.708;2023-06-24T00:56:22;101995.37;;;20.34;57.91
55517;BME280;41724;51.176;-0.708;2023-06-24T00:58:52;101992.02;;;20.27;57.42
55517;BME280;41724;51.176;-0.708;2023-06-24T01:01:20;101992.01;;;20.20;57.63
55517;BME280;41724;51.176;-0.708;2023-06-24T01:03:47;101993.96;;;20.02;60.97
55517;BME280;41724;51.176;-0.708;2023-06-24T01:06:14;101992.16;;;19.66;61.64
55517;BME280;41724;51.176;-0.708;2023-06-24T01:08:41;101987.43;;;20.11;60.20
55517;BME280;41724;51.176;-0.708;2023-06-24T01:11:08;101989.05;;;19.66;63.49
55517;BME280;41724;51.176;-0.708;2023-06-24T01:13:36;101982.90;;;19.10;67.04
55517;BME280;41724;51.176;-0.708;2023-06-24T01:16:13;101980.96;;;19.68;65.12
55517;BME280;41724;51.176;-0.708;2023-06-24T01:18:48;101978.84;;;19.44;65.14
55517;BME280;41724;51.176;-0.708;2023-06-24T01:21:27;101977.26;;;19.63;64.31
55517;BME280;41724;51.176;-0.708;2023-06-24T01:24:17;101976.59;;;20.13;62.97
55517;BME280;41724;51.176;-0.708;2023-06-24T01:27:03;101979.36;;;19.64;64.34
55517;BME280;41724;51.176;-0.708;2023-06-24T01:29:51;101978.76;;;20.18;62.83
55517;BME280;41724;51.176;-0.708;2023-06-24T01:32:25;101975.74;;;20.33;63.02
55517;BME280;41724;51.176;-0.708;2023-06-24T01:34:59;101975.32;;;20.47;61.27
55517;BME280;41724;51.176;-0.708;2023-06-24T01:37:32;101977.44;;;20.53;60.63
55517;BME280;41724;51.176;-0.708;2023-06-24T01:40:08;101978.96;;;20.28;60.11
55517;BME280;41724;51.176;-0.708;2023-06-24T01:42:38;101977.06;;;20.30;59.62
55517;BME280;41724;51.176;-0.708;2023-06-24T01:45:09;101973.32;;;20.76;59.52
55517;BME280;41724;51.176;-0.708;2023-06-24T01:47:38;101971.91;;;20.73;59.51
55517;BME280;41724;51.176;-0.708;2023-06-24T01:50:10;101969.17;;;20.10;60.59
55517;BME280;41724;51.176;-0.708;2023-06-24T01:52:41;101964.41;;;20.52;59.58
55517;BME280;41724;51.176;-0.708;2023-06-24T01:55:10;101970.80;;;20.03;60.76
55517;BME280;41724;51.176;-0.708;2023-06-24T01:57:40;101966.43;;;20.56;59.77
55517;BME280;41724;51.176;-0.708;2023-06-24T02:00:09;101969.74;;;20.00;63.35
55517;BME280;41724;51.176;-0.708;2023-06-24T02:02:38;101970.71;;;20.18;62.88
55517;BME280;41724;51.176;-0.708;2023-06-24T02:05:07;101971.23;;;19.59;64.90
55517;BME280;41724;51.176;-0.708;2023-06-24T02:07:36;101969.63;;;19.73;65.63
55517;BME280;41724;51.176;-0.708;2023-06-24T02:10:06;101968.83;;;18.83;69.31
55517;BME280;41724;51.176;-0.708;2023-06-24T02:12:35;101970.56;;;19.01;70.29
55517;BME280;41724;51.176;-0.708;2023-06-24T02:15:05;101966.62;;;18.19;73.07
55517;BME280;41724;51.176;-0.708;2023-06-24T02:17:33;101967.24;;;18.74;72.37
55517;BME280;41724;51.176;-0.708;2023-06-24T02:20:02;101968.27;;;18.45;73.48
55517;BME280;41724;51.176;-0.708;2023-06-24T02:22:30;101963.32;;;18.70;72.62
55517;BME280;41724;51.176;-0.708;2023-06-24T02:24:57;101960.14;;;17.44;77.65
55517;BME280;41724;51.176;-0.708;2023-06-24T02:27:25;101961.02;;;18.52;74.17
55517;BME280;41724;51.176;-0.708;2023-06-24T02:29:53;101957.28;;;18.08;76.90
55517;BME280;41724;51.176;-0.708;2023-06-24T02:32:21;101960.91;;;17.93;76.23
55517;BME280;41724;51.176;-0.708;2023-06-24T02:34:48;101960.71;;;18.36;75.11
55517;BME280;41724;51.176;-0.708;2023-06-24T02:37:20;101963.65;;;18.28;75.37
55517;BME280;41724;51.176;-0.708;2023-06-24T02:39:47;101959.51;;;17.94;76.84
55517;BME280;41724;51.176;-0.708;2023-06-24T02:42:14;101961.79;;;18.08;76.13
55517;BME280;41724;51.176;-0.708;2023-06-24T02:44:42;101963.07;;;18.67;73.87
55517;BME280;41724;51.176;-0.708;2023-06-24T02:47:12;101963.69;;;18.98;71.81
55517;BME280;41724;51.176;-0.708;2023-06-24T02:49:42;101966.85;;;18.89;71.95
55517;BME280;41724;51.176;-0.708;2023-06-24T02:52:11;101962.34;;;19.40;69.95
55517;BME280;41724;51.176;-0.708;2023-06-24T02:54:39;101968.48;;;18.60;72.22
55517;BME280;41724;51.176;-0.708;2023-06-24T02:57:11;101967.39;;;19.53;70.64
55517;BME280;41724;51.176;-0.708;2023-06-24T02:59:39;101970.44;;;18.37;74.02
55517;BME280;41724;51.176;-0.708;2023-06-24T03:02:06;101973.45;;;18.99;73.29
55517;BME280;41724;51.176;-0.708;2023-06-24T03:04:34;101976.32;;;18.99;71.36
55517;BME280;41724;51.176;-0.708;2023-06-24T03:07:02;101977.23;;;19.44;70.00
55517;BME280;41724;51.176;-0.708;2023-06-24T03:09:31;101977.22;;;19.74;68.84
55517;BME280;41724;51.176;-0.708;2023-06-24T03:12:00;101973.22;;;19.90;68.07
55517;BME280;41724;51.176;-0.708;2023-06-24T03:14:26;101974.52;;;19.18;70.35
55517;BME280;41724;51.176;-0.708;2023-06-24T03:16:54;101969.25;;;19.34;70.23
55517;BME280;41724;51.176;-0.708;2023-06-24T03:19:21;101970.98;;;19.92;68.66
55517;BME280;41724;51.176;-0.708;2023-06-24T03:21:48;101971.86;;;18.62;72.18
55517;BME280;41724;51.176;-0.708;2023-06-24T03:24:15;101966.70;;;19.40;70.20
55517;BME280;41724;51.176;-0.708;2023-06-24T03:26:42;101960.92;;;19.26;71.04
55517;BME280;41724;51.176;-0.708;2023-06-24T03:29:09;101960.87;;;19.79;68.51
55517;BME280;41724;51.176;-0.708;2023-06-24T03:31:37;101959.76;;;19.96;67.90
55517;BME280;41724;51.176;-0.708;2023-06-24T03:34:04;101961.03;;;19.72;68.63
55517;BME280;41724;51.176;-0.708;2023-06-24T03:36:30;101963.76;;;19.75;68.70
55517;BME280;41724;51.176;-0.708;2023-06-24T03:38:57;101970.43;;;18.96;72.35
55517;BME280;41724;51.176;-0.708;2023-06-24T03:41:24;101969.44;;;19.40;70.14
55517;BME280;41724;51.176;-0.708;2023-06-24T03:43:56;101974.84;;;19.15;72.22
55517;BME280;41724;51.176;-0.708;2023-06-24T03:46:28;101970.29;;;17.57;77.95
55517;BME280;41724;51.176;-0.708;2023-06-24T03:48:55;101968.06;;;18.01;77.24
55517;BME280;41724;51.176;-0.708;2023-06-24T03:51:22;101969.75;;;18.26;76.81
55517;BME280;41724;51.176;-0.708;2023-06-24T03:53:48;101970.87;;;18.55;74.58
55517;BME280;41724;51.176;-0.708;2023-06-24T03:56:15;101974.63;;;18.45;75.10
55517;BME280;41724;51.176;-0.708;2023-06-24T03:58:43;101975.89;;;18.97;73.31
55517;BME280;41724;51.176;-0.708;2023-06-24T04:01:15;101973.61;;;19.60;70.97
55517;BME280;41724;51.176;-0.708;2023-06-24T04:03:42;101978.67;;;19.68;69.64
55517;BME280;41724;51.176;-0.708;2023-06-24T04:06:09;101977.29;;;20.09;69.13
55517;BME280;41724;51.176;-0.708;2023-06-24T04:08:36;101977.17;;;20.14;68.00
55517;BME280;41724;51.176;-0.708;2023-06-24T04:11:03;101976.74;;;19.83;68.10
55517;BME280;41724;51.176;-0.708;2023-06-24T04:13:30;101977.73;;;20.18;67.56
55517;BME280;41724;51.176;-0.708;2023-06-24T04:15:57;101981.10;;;19.32;70.21
55517;BME280;41724;51.176;-0.708;2023-06-24T04:18:24;101983.58;;;19.86;68.52
55517;BME280;41724;51.176;-0.708;2023-06-24T04:20:51;101984.04;;;19.40;69.72
55517;BME280;41724;51.176;-0.708;2023-06-24T04:23:18;101986.00;;;18.92;71.30
55517;BME280;41724;51.176;-0.708;2023-06-24T04:25:50;101986.31;;;19.48;69.58
55517;BME280;41724;51.176;-0.708;2023-06-24T04:28:17;101983.25;;;19.99;67.63
55517;BME280;41724;51.176;-0.708;2023-06-24T04:30:44;101982.44;;;20.13;67.47
55517;BME280;41724;51.176;-0.708;2023-06-24T04:33:12;101974.89;;;20.45;66.26
55517;BME280;41724;51.176;-0.708;2023-06-24T04:35:39;101983.38;;;20.12;67.24
55517;BME280;41724;51.176;-0.708;2023-06-24T04:38:06;101985.56;;;19.51;69.08
55517;BME280;41724;51.176;-0.708;2023-06-24T04:40:34;101990.35;;;19.80;68.47
55517;BME280;41724;51.176;-0.708;2023-06-24T04:43:00;101990.95;;;19.52;69.38
55517;BME280;41724;51.176;-0.708;2023-06-24T04:45:27;101991.61;;;19.04;71.03
55517;BME280;41724;51.176;-0.708;2023-06-24T04:47:54;101997.40;;;19.29;70.02
55517;BME280;41724;51.176;-0.708;2023-06-24T04:50:21;101997.99;;;20.15;68.33
55517;BME280;41724;51.176;-0.708;2023-06-24T04:52:52;101998.97;;;19.81;68.67
55517;BME280;41724;51.176;-0.708;2023-06-24T04:55:20;101998.84;;;20.37;66.94
55517;BME280;41724;51.176;-0.708;2023-06-24T04:57:47;101996.72;;;18.47;73.91
55517;BME280;41724;51.176;-0.708;2023-06-24T05:00:15;101994.08;;;18.53;75.33
55517;BME280;41724;51.176;-0.708;2023-06-24T05:02:42;101993.20;;;19.06;74.05
55517;BME280;41724;51.176;-0.708;2023-06-24T05:05:09;101991.59;;;18.60;75.53
55517;BME280;41724;51.176;-0.708;2023-06-24T05:07:36;101992.26;;;18.06;78.86
55517;BME280;41724;51.176;-0.708;2023-06-24T05:10:03;101994.79;;;16.79;83.30
55517;BME280;41724;51.176;-0.708;2023-06-24T05:12:31;101997.51;;;17.24;83.04
55517;BME280;41724;51.176;-0.708;2023-06-24T05:14:58;101994.46;;;17.28;83.60
55517;BME280;41724;51.176;-0.708;2023-06-24T05:17:25;101991.87;;;17.75;82.80
55517;BME280;41724;51.176;-0.708;2023-06-24T05:19:52;102005.14;;;16.27;88.73
55517;BME280;41724;51.176;-0.708;2023-06-24T05:22:18;101997.57;;;17.59;84.49
55517;BME280;41724;51.176;-0.708;2023-06-24T05:24:46;101997.04;;;17.37;85.29
55517;BME280;41724;51.176;-0.708;2023-06-24T05:27:13;101997.36;;;17.77;83.20
55517;BME280;41724;51.176;-0.708;2023-06-24T05:29:40;101998.37;;;17.82;81.78
55517;BME280;41724;51.176;-0.708;2023-06-24T05:32:08;102000.75;;;18.37;79.25
55517;BME280;41724;51.176;-0.708;2023-06-24T05:34:35;102000.69;;;18.38;79.55
55517;BME280;41724;51.176;-0.708;2023-06-24T05:37:02;102000.88;;;17.15;84.02
55517;BME280;41724;51.176;-0.708;2023-06-24T05:39:30;102001.40;;;17.91;83.54
55517;BME280;41724;51.176;-0.708;2023-06-24T05:41:57;101998.82;;;18.88;78.77
55517;BME280;41724;51.176;-0.708;2023-06-24T05:44:24;101998.45;;;19.03;77.15
55517;BME280;41724;51.176;-0.708;2023-06-24T05:46:51;101994.17;;;18.71;78.37
55517;BME280;41724;51.176;-0.708;2023-06-24T05:49:18;101995.86;;;18.86;76.53
55517;BME280;41724;51.176;-0.708;2023-06-24T05:51:45;101996.44;;;19.55;74.69
55517;BME280;41724;51.176;-0.708;2023-06-24T05:54:12;102002.22;;;18.32;79.02
55517;BME280;41724;51.176;-0.708;2023-06-24T05:56:39;102002.81;;;18.21;81.91
55517;BME280;41724;51.176;-0.708;2023-06-24T05:59:06;101999.66;;;18.75;78.21
55517;BME280;41724;51.176;-0.708;2023-06-24T06:01:33;101997.65;;;17.83;80.94
55517;BME280;41724;51.176;-0.708;2023-06-24T06:04:01;101993.36;;;18.12;81.91
55517;BME280;41724;51.176;-0.708;2023-06-24T06:06:28;101993.88;;;17.81;84.14
55517;BME280;41724;51.176;-0.708;2023-06-24T06:08:56;101998.61;;;18.36;82.00
55517;BME280;41724;51.176;-0.708;2023-06-24T06:11:23;101998.11;;;18.44;81.43
55517;BME280;41724;51.176;-0.708;2023-06-24T06:13:50;101997.62;;;18.19;82.76
55517;BME280;41724;51.176;-0.708;2023-06-24T06:16:17;102002.80;;;19.25;78.35
55517;BME280;41724;51.176;-0.708;2023-06-24T06:18:44;102002.95;;;19.08;77.04
55517;BME280;41724;51.176;-0.708;2023-06-24T06:21:11;101995.11;;;18.92;78.47
55517;BME280;41724;51.176;-0.708;2023-06-24T06:23:38;101999.03;;;18.67;79.39
55517;BME280;41724;51.176;-0.708;2023-06-24T06:26:05;102001.58;;;18.39;79.22
55517;BME280;41724;51.176;-0.708;2023-06-24T06:28:32;102004.29;;;18.83;78.91
55517;BME280;41724;51.176;-0.708;2023-06-24T06:30:59;102009.11;;;19.00;77.29
55517;BME280;41724;51.176;-0.708;2023-06-24T06:33:26;102007.59;;;20.33;73.13
55517;BME280;41724;51.176;-0.708;2023-06-24T06:35:53;102006.27;;;20.41;71.38
55517;BME280;41724;51.176;-0.708;2023-06-24T06:38:20;102009.59;;;19.23;75.46
55517;BME280;41724;51.176;-0.708;2023-06-24T06:40:47;102007.75;;;19.93;74.12
55517;BME280;41724;51.176;-0.708;2023-06-24T06:43:14;102003.79;;;20.31;72.67
55517;BME280;41724;51.176;-0.708;2023-06-24T06:45:41;102000.65;;;20.00;73.99
55517;BME280;41724;51.176;-0.708;2023-06-24T06:48:08;102003.62;;;19.75;74.68
55517;BME280;41724;51.176;-0.708;2023-06-24T06:50:35;102011.97;;;19.45;74.35
55517;BME280;41724;51.176;-0.708;2023-06-24T06:53:02;102010.97;;;19.98;73.62
55517;BME280;41724;51.176;-0.708;2023-06-24T06:55:29;102007.81;;;20.81;70.67
55517;BME280;41724;51.176;-0.708;2023-06-24T06:57:57;102009.12;;;20.89;70.23
55517;BME280;41724;51.176;-0.708;2023-06-24T07:00:24;102007.42;;;20.73;69.52
55517;BME280;41724;51.176;-0.708;2023-06-24T07:02:51;102007.29;;;20.11;71.06
55517;BME280;41724;51.176;-0.708;2023-06-24T07:05:18;102015.81;;;20.22;73.40
55517;BME280;41724;51.176;-0.708;2023-06-24T07:07:46;102019.14;;;19.60;73.93
55517;BME280;41724;51.176;-0.708;2023-06-24T07:10:13;102015.38;;;21.28;69.25
55517;BME280;41724;51.176;-0.708;2023-06-24T07:12:39;102016.18;;;20.77;69.94
55517;BME280;41724;51.176;-0.708;2023-06-24T07:15:07;102013.99;;;21.87;66.65
55517;BME280;41724;51.176;-0.708;2023-06-24T07:17:34;102014.90;;;21.32;68.27
55517;BME280;41724;51.176;-0.708;2023-06-24T07:20:01;102010.63;;;20.57;69.30
55517;BME280;41724;51.176;-0.708;2023-06-24T07:22:28;102014.27;;;19.89;71.83
55517;BME280;41724;51.176;-0.708;2023-06-24T07:24:55;102011.55;;;20.18;72.28
55517;BME280;41724;51.176;-0.708;2023-06-24T07:27:22;102013.43;;;20.79;70.01
55517;BME280;41724;51.176;-0.708;2023-06-24T07:29:49;102018.55;;;20.85;69.22
55517;BME280;41724;51.176;-0.708;2023-06-24T07:32:16;102022.54;;;20.02;73.13
55517;BME280;41724;51.176;-0.708;2023-06-24T07:34:43;102025.12;;;20.64;72.92
55517;BME280;41724;51.176;-0.708;2023-06-24T07:37:09;102019.52;;;21.27;69.77
55517;BME280;41724;51.176;-0.708;2023-06-24T07:39:37;102017.39;;;21.10;69.34
55517;BME280;41724;51.176;-0.708;2023-06-24T07:42:04;102015.75;;;20.31;69.88
55517;BME280;41724;51.176;-0.708;2023-06-24T07:44:31;102013.93;;;21.11;69.67
55517;BME280;41724;51.176;-0.708;2023-06-24T07:46:58;102009.55;;;21.40;68.61
55517;BME280;41724;51.176;-0.708;2023-06-24T07:49:25;102002.43;;;22.55;65.73
55517;BME280;41724;51.176;-0.708;2023-06-24T07:51:52;102003.36;;;22.58;64.61
55517;BME280;41724;51.176;-0.708;2023-06-24T07:54:19;102004.37;;;23.01;62.95
55517;BME280;41724;51.176;-0.708;2023-06-24T07:56:47;102005.91;;;22.10;65.50
55517;BME280;41724;51.176;-0.708;2023-06-24T07:59:14;102000.50;;;22.80;63.02
55517;BME280;41724;51.176;-0.708;2023-06-24T08:01:41;101996.99;;;22.96;62.09
55517;BME280;41724;51.176;-0.708;2023-06-24T08:04:08;101997.71;;;23.24;61.71
55517;BME280;41724;51.176;-0.708;2023-06-24T08:06:35;101998.36;;;23.09;61.75
55517;BME280;41724;51.176;-0.708;2023-06-24T08:09:02;102001.12;;;24.12;59.45
55517;BME280;41724;51.176;-0.708;2023-06-24T08:11:28;102005.42;;;23.22;61.44
55517;BME280;41724;51.176;-0.708;2023-06-24T08:13:55;102009.12;;;22.72;63.73
55517;BME280;41724;51.176;-0.708;2023-06-24T08:16:22;102008.83;;;23.57;61.46
55517;BME280;41724;51.176;-0.708;2023-06-24T08:18:49;102012.59;;;23.79;59.77
55517;BME280;41724;51.176;-0.708;2023-06-24T08:21:16;102010.36;;;22.87;63.09
55517;BME280;41724;51.176;-0.708;2023-06-24T08:23:42;102009.32;;;22.30;63.39
55517;BME280;41724;51.176;-0.708;2023-06-24T08:26:09;102007.37;;;23.06;62.44
55517;BME280;41724;51.176;-0.708;2023-06-24T08:28:36;102007.19;;;23.40;61.44
55517;BME280;41724;51.176;-0.708;2023-06-24T08:31:03;102011.13;;;23.37;61.69
55517;BME280;41724;51.176;-0.708;2023-06-24T08:33:30;102010.84;;;23.84;59.86
55517;BME280;41724;51.176;-0.708;2023-06-24T08:35:57;102008.20;;;24.62;56.80
55517;BME280;41724;51.176;-0.708;2023-06-24T08:38:23;102007.11;;;23.86;59.32
55517;BME280;41724;51.176;-0.708;2023-06-24T08:40:50;102005.88;;;24.33;59.75
55517;BME280;41724;51.176;-0.708;2023-06-24T08:43:18;101998.90;;;23.92;59.51
55517;BME280;41724;51.176;-0.708;2023-06-24T08:45:45;101990.35;;;24.05;59.64
55517;BME280;41724;51.176;-0.708;2023-06-24T08:48:13;101987.49;;;24.64;59.56
55517;BME280;41724;51.176;-0.708;2023-06-24T08:50:44;101984.65;;;24.65;57.13
55517;BME280;41724;51.176;-0.708;2023-06-24T08:53:14;101982.29;;;24.47;56.58
55517;BME280;41724;51.176;-0.708;2023-06-24T08:55:43;101977.04;;;25.44;55.17
55517;BME280;41724;51.176;-0.708;2023-06-24T08:58:13;101976.26;;;25.40;54.43
55517;BME280;41724;51.176;-0.708;2023-06-24T09:00:40;101966.62;;;26.43;53.51
55517;BME280;41724;51.176;-0.708;2023-06-24T09:03:07;101971.34;;;25.47;55.41
55517;BME280;41724;51.176;-0.708;2023-06-24T09:05:34;101967.66;;;25.82;54.15
55517;BME280;41724;51.176;-0.708;2023-06-24T09:08:01;101967.04;;;25.95;53.57
55517;BME280;41724;51.176;-0.708;2023-06-24T09:10:32;101968.22;;;25.95;53.77
55517;BME280;41724;51.176;-0.708;2023-06-24T09:13:00;101966.96;;;24.78;57.47
55517;BME280;41724;51.176;-0.708;2023-06-24T09:15:30;101962.26;;;25.26;55.81
55517;BME280;41724;51.176;-0.708;2023-06-24T09:17:58;101957.10;;;25.77;53.91
55517;BME280;41724;51.176;-0.708;2023-06-24T09:20:25;101963.76;;;25.64;54.70
55517;BME280;41724;51.176;-0.708;2023-06-24T09:22:52;101963.24;;;25.34;54.40
55517;BME280;41724;51.176;-0.708;2023-06-24T09:25:23;101962.72;;;24.95;56.85
55517;BME280;41724;51.176;-0.708;2023-06-24T09:27:50;101960.94;;;25.62;55.12
55517;BME280;41724;51.176;-0.708;2023-06-24T09:30:18;101958.86;;;25.79;53.64
55517;BME280;41724;51.176;-0.708;2023-06-24T09:32:46;101959.08;;;25.30;53.91
55517;BME280;41724;51.176;-0.708;2023-06-24T09:35:13;101953.97;;;23.91;58.37
55517;BME280;41724;51.176;-0.708;2023-06-24T09:37:41;101945.82;;;25.20;56.72
55517;BME280;41724;51.176;-0.708;2023-06-24T09:40:08;101945.19;;;25.46;55.03
55517;BME280;41724;51.176;-0.708;2023-06-24T09:42:36;101945.50;;;25.61;55.13
55517;BME280;41724;51.176;-0.708;2023-06-24T09:45:05;101942.89;;;26.17;53.54
55517;BME280;41724;51.176;-0.708;2023-06-24T09:47:33;101942.22;;;26.65;51.98
55517;BME280;41724;51.176;-0.708;2023-06-24T09:50:00;101939.03;;;25.97;54.28
55517;BME280;41724;51.176;-0.708;2023-06-24T09:52:27;101929.76;;;26.45;51.90
55517;BME280;41724;51.176;-0.708;2023-06-24T09:54:56;101931.23;;;25.80;52.55
55517;BME280;41724;51.176;-0.708;2023-06-24T09:57:28;101927.38;;;26.18;53.00
55517;BME280;41724;51.176;-0.708;2023-06-24T09:59:56;101929.70;;;26.30;51.35
55517;BME280;41724;51.176;-0.708;2023-06-24T10:02:24;101932.32;;;26.16;52.50
55517;BME280;41724;51.176;-0.708;2023-06-24T10:04:52;101930.28;;;26.04;51.77
55517;BME280;41724;51.176;-0.708;2023-06-24T10:07:19;101925.97;;;26.31;50.10
55517;BME280;41724;51.176;-0.708;2023-06-24T10:09:46;101918.59;;;25.91;51.43
55517;BME280;41724;51.176;-0.708;2023-06-24T10:12:14;101913.30;;;26.18;52.17
55517;BME280;41724;51.176;-0.708;2023-06-24T10:14:41;101922.02;;;25.69;52.95
55517;BME280;41724;51.176;-0.708;2023-06-24T10:17:08;101926.70;;;25.19;55.01
55517;BME280;41724;51.176;-0.708;2023-06-24T10:19:38;101922.60;;;24.41;59.11
55517;BME280;41724;51.176;-0.708;2023-06-24T10:22:08;101918.55;;;24.74;57.11
55517;BME280;41724;51.176;-0.708;2023-06-24T10:24:37;101912.25;;;25.67;54.58
55517;BME280;41724;51.176;-0.708;2023-06-24T10:27:06;101903.79;;;26.64;51.68
55517;BME280;41724;51.176;-0.708;2023-06-24T10:29:35;101899.09;;;27.42;50.50
55517;BME280;41724;51.176;-0.708;2023-06-24T10:32:05;101902.87;;;25.63;52.05
55517;BME280;41724;51.176;-0.708;2023-06-24T10:34:34;101904.45;;;24.63;54.11
55517;BME280;41724;51.176;-0.708;2023-06-24T10:37:10;101899.58;;;25.34;50.32
55517;BME280;41724;51.176;-0.708;2023-06-24T10:39:54;101899.06;;;25.47;50.27
55517;BME280;41724;51.176;-0.708;2023-06-24T10:42:29;101897.17;;;26.84;48.96
55517;BME280;41724;51.176;-0.708;2023-06-24T10:44:58;101896.72;;;25.52;51.92
55517;BME280;41724;51.176;-0.708;2023-06-24T10:47:28;101897.28;;;25.00;52.58
55517;BME280;41724;51.176;-0.708;2023-06-24T10:49:55;101893.08;;;25.87;52.27
55517;BME280;41724;51.176;-0.708;2023-06-24T10:52:23;101887.55;;;25.93;49.16
55517;BME280;41724;51.176;-0.708;2023-06-24T10:54:52;101882.97;;;26.48;49.02
55517;BME280;41724;51.176;-0.708;2023-06-24T10:57:22;101878.14;;;27.19;47.58
55517;BME280;41724;51.176;-0.708;2023-06-24T10:59:50;101879.43;;;26.83;48.03
55517;BME280;41724;51.176;-0.708;2023-06-24T11:02:18;101873.75;;;26.78;49.54
55517;BME280;41724;51.176;-0.708;2023-06-24T11:04:45;101876.34;;;25.65;51.61
55517;BME280;41724;51.176;-0.708;2023-06-24T11:07:13;101874.20;;;27.20;48.86
55517;BME280;41724;51.176;-0.708;2023-06-24T11:09:41;101872.77;;;27.11;48.34
55517;BME280;41724;51.176;-0.708;2023-06-24T11:12:09;101867.89;;;28.07;47.24
55517;BME280;41724;51.176;-0.708;2023-06-24T11:14:37;101866.54;;;27.47;48.07
55517;BME280;41724;51.176;-0.708;2023-06-24T11:17:05;101859.41;;;27.82;47.04
55517;BME280;41724;51.176;-0.708;2023-06-24T11:19:32;101862.92;;;27.10;47.12
55517;BME280;41724;51.176;-0.708;2023-06-24T11:22:00;101859.56;;;27.82;46.12
55517;BME280;41724;51.176;-0.708;2023-06-24T11:24:28;101852.54;;;28.16;45.27
55517;BME280;41724;51.176;-0.708;2023-06-24T11:26:56;101856.05;;;27.38;44.65
55517;BME280;41724;51.176;-0.708;2023-06-24T11:29:23;101850.18;;;28.36;42.22
55517;BME280;41724;51.176;-0.708;2023-06-24T11:31:51;101848.72;;;28.48;42.88
55517;BME280;41724;51.176;-0.708;2023-06-24T11:34:18;101845.30;;;29.73;41.71
55517;BME280;41724;51.176;-0.708;2023-06-24T11:36:45;101835.32;;;30.41;40.86
55517;BME280;41724;51.176;-0.708;2023-06-24T11:39:28;101829.79;;;30.27;38.02
55517;BME280;41724;51.176;-0.708;2023-06-24T11:41:58;101826.36;;;29.72;38.85
55517;BME280;41724;51.176;-0.708;2023-06-24T11:44:25;101829.09;;;31.11;38.79
55517;BME280;41724;51.176;-0.708;2023-06-24T11:46:53;101823.81;;;30.87;38.40
55517;BME280;41724;51.176;-0.708;2023-06-24T11:49:29;101816.10;;;31.12;35.89
55517;BME280;41724;51.176;-0.708;2023-06-24T11:51:57;101817.36;;;30.85;36.15
55517;BME280;41724;51.176;-0.708;2023-06-24T11:54:24;101819.77;;;30.93;36.88
55517;BME280;41724;51.176;-0.708;2023-06-24T11:56:51;101821.71;;;30.90;37.13
55517;BME280;41724;51.176;-0.708;2023-06-24T11:59:21;101828.33;;;29.08;39.97
55517;BME280;41724;51.176;-0.708;2023-06-24T12:01:56;101820.27;;;29.53;41.70
55517;BME280;41724;51.176;-0.708;2023-06-24T12:04:28;101823.92;;;28.59;42.38
55517;BME280;41724;51.176;-0.708;2023-06-24T12:06:56;101820.81;;;29.64;40.34
55517;BME280;41724;51.176;-0.708;2023-06-24T12:09:24;101819.92;;;29.30;40.23
55517;BME280;41724;51.176;-0.708;2023-06-24T12:11:51;101820.31;;;28.14;41.02
55517;BME280;41724;51.176;-0.708;2023-06-24T12:14:23;101808.47;;;29.60;39.93
55517;BME280;41724;51.176;-0.708;2023-06-24T12:16:50;101805.80;;;30.05;39.24
55517;BME280;41724;51.176;-0.708;2023-06-24T12:19:17;101806.47;;;30.29;36.99
55517;BME280;41724;51.176;-0.708;2023-06-24T12:21:44;101809.45;;;31.51;37.57
55517;BME280;41724;51.176;-0.708;2023-06-24T12:24:10;101802.99;;;32.68;33.88
55517;BME280;41724;51.176;-0.708;2023-06-24T12:26:37;101799.02;;;32.96;32.88
55517;BME280;41724;51.176;-0.708;2023-06-24T12:29:04;101796.83;;;32.82;33.24
55517;BME280;41724;51.176;-0.708;2023-06-24T12:31:30;101794.14;;;33.32;33.69
55517;BME280;41724;51.176;-0.708;2023-06-24T12:33:58;101795.29;;;32.30;32.94
55517;BME280;41724;51.176;-0.708;2023-06-24T12:36:24;101787.79;;;33.13;31.96
55517;BME280;41724;51.176;-0.708;2023-06-24T12:38:51;101784.40;;;32.74;31.63
55517;BME280;41724;51.176;-0.708;2023-06-24T12:41:19;101789.39;;;32.24;33.55
55517;BME280;41724;51.176;-0.708;2023-06-24T12:43:46;101792.96;;;32.79;33.14
55517;BME280;41724;51.176;-0.708;2023-06-24T12:46:14;101796.14;;;32.37;34.37